Time;durP1;ratioP1;P1;durP2;ratioP2;P2;SDS_P1;SDS_P2;PMS_P1;PMS_P2;Temp;Humidity;BMP_temperature;BMP_pressure;BME280_temperature;BME280_humidity;BME280_pressure;Samples;Min_cycle;Max_cycle;Signal;HPM_P1;HPM_P2
2024/01/08 00:06:22;;;;;;;5.43;4.07;;;;;;;0.62;69.97;95091.25;4966671;28;20725;-88
2024/01/08 00:08:52;;;;;;;4.03;3.47;;;;;;;0.42;69.54;95064.25;4944417;28;20253;-87
2024/01/08 00:11:28;;;;;;;4.17;3.50;;;;;;;0.47;69.89;95079.88;4992272;28;20199;-88
2024/01/08 00:14:12;;;;;;;;;;;;;;;;;;;;;
2024/01/08 00:19:51;;;;;;;4.10;3.57;;;;;;;0.32;69.14;95038.94;4980296;28;20234;-88
2024/01/08 00:22:22;;;;;;;4.90;3.57;;;;;;;0.40;68.87;95034.94;4992440;28;20191;-88
2024/01/08 00:28:39;;;;;;;4.47;3.13;;;;;;;0.44;68.27;95005.91;4973625;28;20207;-88
2024/01/08 00:31:07;;;;;;;4.50;3.50;;;;;;;0.37;67.92;94982.03;4973374;28;20327;-87
2024/01/08 00:33:34;;;;;;;3.77;3.30;;;;;;;0.20;68.00;94980.91;4985268;28;20239;-88
2024/01/08 00:36:00;;;;;;;4.77;3.70;;;;;;;0.07;68.88;95014.03;4990511;28;20208;-88
2024/01/08 00:38:38;;;;;;;4.93;3.70;;;;;;;0.17;69.22;95057.13;4993206;28;20210;-87
2024/01/08 00:41:06;;;;;;;4.30;3.43;;;;;;;0.19;69.26;95057.78;4991409;28;20315;-88
2024/01/08 00:43:32;;;;;;;3.83;3.23;;;;;;;0.28;69.55;95085.66;4991140;28;20668;-88
2024/01/08 00:46:17;;;;;;;4.03;3.63;;;;;;;0.30;68.96;95060.22;4989151;28;20235;-88
2024/01/08 00:48:44;;;;;;;4.93;3.50;;;;;;;0.37;68.99;95061.34;4992063;28;20187;-88
2024/01/08 00:51:11;;;;;;;4.37;3.57;;;;;;;0.42;68.91;95051.59;4989144;28;20200;-87
2024/01/08 00:53:37;;;;;;;4.87;3.80;;;;;;;0.40;68.62;95035.72;4990743;28;20725;-88
2024/01/08 00:56:04;;;;;;;4.63;3.90;;;;;;;0.46;68.51;95047.09;4984422;28;20234;-87
2024/01/08 00:58:41;;;;;;;4.73;4.00;;;;;;;0.28;68.23;95024.91;4991201;28;20242;-87
2024/01/08 01:01:08;;;;;;;4.13;3.60;;;;;;;0.32;68.93;95056.66;4990655;28;20223;-88
2024/01/08 01:03:34;;;;;;;4.97;3.80;;;;;;;0.20;68.56;95034.84;4983236;28;20196;-88
2024/01/08 01:06:03;;;;;;;4.30;3.70;;;;;;;0.25;68.56;95044.59;4985622;28;20209;-88
2024/01/08 01:08:29;;;;;;;4.60;3.80;;;;;;;0.21;68.37;95044.06;4971726;28;20579;-87
2024/01/08 01:11:02;;;;;;;4.93;4.03;;;;;;;0.21;68.63;95033.94;4976454;28;20570;-88
2024/01/08 01:13:28;;;;;;;5.60;3.77;;;;;;;0.13;68.30;95032.97;4990713;28;20204;-88
2024/01/08 01:15:55;;;;;;;4.27;3.87;;;;;;;0.13;68.28;95033.78;4974807;28;20206;-87
2024/01/08 01:18:21;;;;;;;4.73;3.63;;;;;;;0.10;68.24;95028.97;4991213;28;20807;-87
2024/01/08 01:20:48;;;;;;;4.37;3.97;;;;;;;0.19;68.38;95043.38;4980354;28;20227;-88
2024/01/08 01:23:31;;;;;;;4.27;3.87;;;;;;;0.15;68.25;95037.00;4986521;28;20689;-88
2024/01/08 01:25:58;;;;;;;3.97;3.57;;;;;;;0.20;68.24;95039.91;4990239;28;20195;-88
2024/01/08 01:28:27;;;;;;;4.80;3.70;;;;;;;0.18;67.66;95024.09;4991315;28;20573;-87
2024/01/08 01:30:53;;;;;;;4.10;3.70;;;;;;;0.19;68.24;95040.84;4971240;28;20209;-88
2024/01/08 01:33:19;;;;;;;4.90;3.97;;;;;;;0.08;68.66;95057.84;4970809;28;20208;-87
2024/01/08 01:35:53;;;;;;;3.97;3.57;;;;;;;0.13;68.35;95059.09;4987870;28;20570;-87
2024/01/08 01:38:22;;;;;;;4.37;3.97;;;;;;;0.23;68.28;95062.44;4989497;28;20207;-87
2024/01/08 01:40:48;;;;;;;4.03;3.63;;;;;;;0.18;68.19;95053.66;4989557;28;20705;-88
2024/01/08 01:43:22;;;;;;;3.90;3.50;;;;;;;0.17;67.71;95044.47;4990735;28;20569;-88
2024/01/08 01:45:55;;;;;;;4.77;4.10;;;;;;;0.06;67.85;95036.94;4989678;28;20207;-87
2024/01/08 01:48:22;;;;;;;4.70;3.53;;;;;;;0.12;68.30;95061.75;4982496;28;20203;-88
2024/01/08 01:50:49;;;;;;;4.30;3.90;;;;;;;0.07;68.60;95073.97;4970907;28;20583;-88
2024/01/08 01:53:16;;;;;;;4.33;3.63;;;;;;;0.03;68.36;95068.34;4970791;28;20205;-87
2024/01/08 01:55:44;;;;;;;4.43;3.63;;;;;;;0.11;68.62;95081.19;4984310;28;20310;-88
2024/01/08 01:58:15;;;;;;;5.43;4.00;;;;;;;0.12;68.00;95054.16;4990258;28;20203;-88
2024/01/08 02:00:42;;;;;;;4.33;3.93;;;;;;;0.01;68.17;95062.59;4981383;28;20692;-87
2024/01/08 02:03:10;;;;;;;4.07;3.67;;;;;;;-0.02;67.92;95053.56;4989573;28;20594;-88
2024/01/08 02:05:37;;;;;;;4.50;4.07;;;;;;;-0.01;68.68;95080.47;4970958;28;20231;-87
2024/01/08 02:08:05;;;;;;;5.07;4.23;;;;;;;0.00;68.42;95076.97;4973397;28;20218;-87
2024/01/08 02:10:31;;;;;;;4.23;3.70;;;;;;;-0.02;67.99;95043.44;4984969;28;20669;-88
2024/01/08 02:13:03;;;;;;;4.23;3.83;;;;;;;0.08;68.02;95055.31;4988701;28;20685;-88
2024/01/08 02:15:30;;;;;;;4.13;3.67;;;;;;;0.09;67.32;95029.09;4988878;28;20231;-88
2024/01/08 02:17:56;;;;;;;4.13;3.67;;;;;;;0.05;67.64;95033.59;4987259;28;20210;-88
2024/01/08 02:20:22;;;;;;;4.10;3.60;;;;;;;0.05;68.09;95048.78;4982214;28;20223;-88
2024/01/08 02:22:50;;;;;;;4.30;3.90;;;;;;;0.05;68.08;95060.63;4970156;28;20579;-87
2024/01/08 02:25:17;;;;;;;4.93;4.03;;;;;;;0.09;67.63;95044.28;4981099;28;20231;-88
2024/01/08 02:27:43;;;;;;;4.50;3.90;;;;;;;0.15;67.85;95041.25;4983186;28;20211;-88
2024/01/08 02:30:10;;;;;;;4.20;3.80;;;;;;;0.01;68.13;95047.41;4989111;28;20216;-87
2024/01/08 02:32:37;;;;;;;4.73;3.93;;;;;;;0.00;68.27;95059.28;4989764;28;20207;-87
2024/01/08 02:35:04;;;;;;;4.10;3.70;;;;;;;-0.06;68.20;95061.53;4989508;28;20227;-88
2024/01/08 02:37:31;;;;;;;4.60;3.90;;;;;;;-0.13;68.01;95058.69;4988940;28;20684;-88
2024/01/08 02:39:58;;;;;;;4.27;3.80;;;;;;;-0.09;68.38;95070.16;4989091;28;20564;-87
2024/01/08 02:42:25;;;;;;;4.37;3.73;;;;;;;-0.02;68.58;95075.53;4982503;28;20826;-87
2024/01/08 02:45:00;;;;;;;5.03;3.90;;;;;;;0.00;68.17;95063.56;4989125;28;20242;-88
2024/01/08 02:47:27;;;;;;;6.43;4.10;;;;;;;-0.21;68.04;95045.06;4988761;28;20199;-88
2024/01/08 02:49:54;;;;;;;4.47;4.07;;;;;;;-0.47;69.06;95072.44;4989112;28;20234;-88
2024/01/08 02:52:21;;;;;;;4.20;3.80;;;;;;;-0.36;69.57;95133.06;4974014;28;20729;-87
2024/01/08 02:54:51;;;;;;;4.03;3.63;;;;;;;-0.19;69.30;95131.75;4978486;28;20219;-88
2024/01/08 02:57:22;;;;;;;4.30;3.90;;;;;;;-0.16;68.85;95101.13;4969729;28;20196;-87
2024/01/08 02:59:48;;;;;;;4.57;3.90;;;;;;;-0.15;68.53;95095.94;4982868;28;20284;-88
2024/01/08 03:02:15;;;;;;;5.40;4.07;;;;;;;-0.03;68.57;95111.88;4989109;28;20208;-87
2024/01/08 03:04:41;;;;;;;4.17;3.77;;;;;;;0.03;68.73;95101.25;4988498;28;20661;-88
2024/01/08 03:07:08;;;;;;;4.37;3.97;;;;;;;0.00;68.33;95083.81;4976270;28;20192;-88
2024/01/08 03:09:34;;;;;;;4.23;3.83;;;;;;;0.04;68.43;95089.38;4974399;28;20199;-88
2024/01/08 03:12:05;;;;;;;4.43;4.00;;;;;;;0.02;68.69;95093.78;4987984;28;20207;-88
2024/01/08 03:14:33;;;;;;;4.63;4.20;;;;;;;-0.04;68.23;95083.25;4972752;28;20753;-87
2024/01/08 03:17:00;;;;;;;4.20;3.80;;;;;;;-0.02;68.26;95090.72;4988280;28;20207;-88
2024/01/08 03:19:32;;;;;;;4.00;3.60;;;;;;;-0.01;68.53;95094.84;4988659;28;20715;-87
2024/01/08 03:22:15;;;;;;;5.37;4.20;;;;;;;-0.01;68.55;95094.84;4981528;28;20220;-88
2024/01/08 03:24:41;;;;;;;4.87;4.20;;;;;;;-0.11;68.15;95086.38;4968594;28;20231;-87
2024/01/08 03:27:10;;;;;;;4.80;4.10;;;;;;;-0.11;68.31;95106.63;4981322;28;20258;-88
2024/01/08 03:29:54;;;;;;;5.27;4.40;;;;;;;-0.17;68.28;95090.19;4979457;28;20200;-87
2024/01/08 03:32:20;;;;;;;5.20;4.30;;;;;;;-0.15;68.53;95107.78;4946661;28;20721;-87
2024/01/08 03:34:47;;;;;;;4.57;4.17;;;;;;;-0.13;68.99;95123.66;4988041;28;20228;-87
2024/01/08 03:37:13;;;;;;;4.30;3.90;;;;;;;-0.13;68.77;95131.25;4976314;28;20803;-87
2024/01/08 03:39:40;;;;;;;4.13;3.70;;;;;;;-0.03;68.51;95122.00;4971339;28;20689;-87
2024/01/08 03:42:17;;;;;;;4.60;4.00;;;;;;;0.03;68.03;95093.66;4973013;28;20232;-88
2024/01/08 03:44:43;;;;;;;4.40;4.00;;;;;;;-0.05;67.93;95080.84;4991791;28;20233;-88
2024/01/08 03:47:12;;;;;;;4.97;3.77;;;;;;;-0.15;67.81;95052.94;4990754;28;20215;-88
2024/01/08 03:49:40;;;;;;;5.30;3.80;;;;;;;-0.10;67.81;95062.69;4988176;28;20200;-88
2024/01/08 03:52:16;;;;;;;4.60;4.20;;;;;;;-0.15;67.83;95054.66;4987581;28;20208;-88
2024/01/08 03:54:43;;;;;;;4.27;3.87;;;;;;;-0.16;67.58;95063.97;4972652;28;20223;-88
2024/01/08 03:57:09;;;;;;;4.90;4.20;;;;;;;-0.31;67.93;95057.63;4984069;28;20723;-89
2024/01/08 03:59:36;;;;;;;4.10;3.70;;;;;;;-0.35;68.48;95086.63;4992259;28;20234;-87
2024/01/08 04:02:02;;;;;;;4.33;3.93;;;;;;;-0.36;68.44;95095.94;4992000;28;20234;-88
2024/01/08 04:04:40;;;;;;;4.80;3.73;;;;;;;-0.33;69.84;95158.09;4989088;28;20227;-88
2024/01/08 04:07:07;;;;;;;4.40;4.00;;;;;;;-0.41;68.88;95123.31;4987831;28;20199;-88
2024/01/08 04:09:33;;;;;;;4.47;4.00;;;;;;;-0.29;68.79;95125.78;4992203;28;20203;-87
2024/01/08 04:12:00;;;;;;;5.10;4.23;;;;;;;-0.25;68.13;95092.56;4990961;28;20203;-88
2024/01/08 04:14:26;;;;;;;4.40;4.00;;;;;;;-0.41;67.92;95069.41;4991243;28;20223;-87
2024/01/08 04:17:07;;;;;;;4.83;4.30;;;;;;;-0.34;67.87;95060.41;4981995;28;20211;-88
2024/01/08 04:19:37;;;;;;;4.23;3.83;;;;;;;-0.23;67.47;95057.03;4978093;28;20215;-88
2024/01/08 04:22:06;;;;;;;5.70;4.03;;;;;;;-0.23;66.97;95042.66;4991505;28;20716;-88
2024/01/08 04:24:44;;;;;;;4.20;3.80;;;;;;;-0.18;67.67;95052.38;4974686;28;20223;-88
2024/01/08 04:27:10;;;;;;;4.73;4.10;;;;;;;-0.37;67.07;95028.56;4984175;28;20202;-88
2024/01/08 04:29:37;;;;;;;4.30;3.90;;;;;;;-0.53;67.57;95048.44;4991843;28;20218;-87
2024/01/08 04:32:04;;;;;;;4.30;3.83;;;;;;;-0.55;67.75;95049.47;4989533;28;20684;-88
2024/01/08 04:34:31;;;;;;;5.23;3.77;;;;;;;-0.54;67.36;95063.72;4974649;28;20242;-87
2024/01/08 04:37:06;;;;;;;4.73;3.70;;;;;;;-0.59;67.16;95043.09;4987461;28;20700;-87
2024/01/08 04:39:33;;;;;;;4.10;3.70;;;;;;;-0.52;67.66;95062.69;4991661;28;20210;-88
2024/01/08 04:41:59;;;;;;;5.73;4.00;;;;;;;-0.48;68.12;95075.88;4991511;28;20219;-88
2024/01/08 04:44:26;;;;;;;4.40;3.93;;;;;;;-0.43;67.44;95064.47;4991593;28;20234;-88
2024/01/08 04:46:52;;;;;;;4.77;4.20;;;;;;;-0.36;67.25;95064.78;4985132;28;20207;-88
2024/01/08 04:49:21;;;;;;;4.07;3.67;;;;;;;-0.38;67.48;95076.75;4985822;28;20211;-87
2024/01/08 04:51:54;;;;;;;5.23;3.90;;;;;;;-0.37;67.34;95069.03;4989326;28;20203;-89
2024/01/08 04:54:22;;;;;;;4.43;3.87;;;;;;;-0.32;67.38;95071.19;4981378;28;20370;-88
2024/01/08 04:56:50;;;;;;;5.27;4.20;;;;;;;-0.18;75.54;95457.94;4974882;28;20207;-87
2024/01/08 04:59:19;;;;;;;4.43;4.03;;;;;;;-0.04;68.89;95188.72;4972207;28;20294;-88
2024/01/08 05:01:46;;;;;;;5.17;4.00;;;;;;;-0.03;67.73;95111.88;4975621;28;20652;-87
2024/01/08 05:04:22;;;;;;;5.70;3.97;;;;;;;-0.03;67.56;95099.22;4990272;28;20227;-88
2024/01/08 05:06:48;;;;;;;4.50;4.03;;;;;;;-0.10;68.24;95109.03;4975576;28;20878;-87
2024/01/08 05:09:15;;;;;;;4.60;4.17;;;;;;;-0.26;67.66;95083.38;4988428;28;20212;-87
2024/01/08 05:11:42;;;;;;;4.67;4.13;;;;;;;-0.21;68.00;95101.50;4987370;28;20200;-87
2024/01/08 05:14:23;;;;;;;4.10;3.63;;;;;;;-0.18;67.74;95098.72;4985165;28;20227;-87
2024/01/08 05:16:49;;;;;;;4.13;3.73;;;;;;;-0.14;66.90;95066.38;4990068;28;20211;-87
2024/01/08 05:19:16;;;;;;;4.73;3.90;;;;;;;-0.28;67.22;95067.50;4985365;28;20199;-86
2024/01/08 05:21:42;;;;;;;4.33;3.87;;;;;;;-0.26;67.88;95098.53;4979348;28;20220;-87
2024/01/08 05:24:11;;;;;;;4.30;3.90;;;;;;;-0.26;67.14;95070.72;4977417;28;20227;-87
2024/01/08 05:26:45;;;;;;;4.73;4.10;;;;;;;-0.38;67.35;95066.63;4990227;28;20238;-87
2024/01/08 05:29:12;;;;;;;4.30;3.90;;;;;;;-0.47;67.36;95065.66;4990863;28;20214;-87
2024/01/08 05:31:39;;;;;;;4.67;4.20;;;;;;;-0.53;67.77;95083.81;4990320;28;20295;-88
2024/01/08 05:34:08;;;;;;;5.27;3.90;;;;;;;-0.46;67.84;95100.13;4990277;28;20601;-88
2024/01/08 05:36:34;;;;;;;4.73;4.20;;;;;;;-0.38;67.96;95105.34;4990251;28;20208;-88
2024/01/08 05:39:10;;;;;;;4.80;4.30;;;;;;;-0.30;68.20;95122.47;4990648;28;20207;-88
2024/01/08 05:44:37;;;;;;;5.07;4.10;;;;;;;-0.27;67.86;95118.91;4980373;28;20216;-87
2024/01/08 05:47:07;;;;;;;6.90;4.73;;;;;;;-0.36;67.87;95103.50;4970337;28;20196;-88
2024/01/08 05:49:51;;;;;;;4.97;4.47;;;;;;;-0.34;67.57;95103.41;4969994;28;20219;-88
2024/01/08 05:52:17;;;;;;;4.37;3.90;;;;;;;-0.37;67.84;95098.56;4968282;28;20208;-86
2024/01/08 05:54:44;;;;;;;4.43;3.87;;;;;;;-0.37;67.94;95129.72;4988197;28;20228;-87
2024/01/08 05:57:26;;;;;;;7.33;4.70;;;;;;;-0.29;69.11;95176.38;4982576;28;20311;-86
2024/01/08 05:59:53;;;;;;;6.23;4.63;;;;;;;-0.28;68.70;95166.16;4980533;28;20601;-87
2024/01/08 06:05:41;;;;;;;4.30;3.90;;;;;;;-0.26;67.91;95121.31;4970752;28;20872;-87
2024/01/08 06:08:13;;;;;;;5.33;4.57;;;;;;;-0.22;67.80;95144.63;4968421;28;20572;-86
2024/01/08 06:13:27;;;;;;;7.97;4.50;;;;;;;-0.49;68.37;95152.66;4986972;28;20215;-87
2024/01/08 06:15:55;;;;;;;7.73;5.07;;;;;;;-0.41;68.98;95201.72;4988866;28;20214;-88
2024/01/08 06:18:21;;;;;;;5.50;4.77;;;;;;;-0.41;69.14;95211.03;4989110;28;20897;-87
2024/01/08 06:20:49;;;;;;;7.57;4.23;;;;;;;-0.48;68.67;95171.97;4990881;28;20215;-87
2024/01/08 06:26:30;;;;;;;6.47;5.13;;;;;;;-0.41;70.06;95248.97;4987775;28;20286;-86
2024/01/08 06:32:19;;;;;;;7.10;5.40;;;;;;;-0.45;73.08;95412.75;4985671;28;20282;-89
2024/01/08 06:34:45;;;;;;;25.90;18.50;;;;;;;-0.31;70.93;95312.28;4989443;28;20803;-87
2024/01/08 06:37:36;;;;;;;13.93;10.20;;;;;;;-0.29;69.86;95267.44;4989431;28;20290;-87
2024/01/08 06:40:03;;;;;;;5.97;5.20;;;;;;;-0.26;69.62;95252.81;4982017;28;20208;-87
2024/01/08 06:42:29;;;;;;;5.93;4.83;;;;;;;-0.19;69.40;95248.09;4973405;28;20220;-87
2024/01/08 06:44:56;;;;;;;5.37;4.63;;;;;;;-0.15;69.54;95245.19;4977352;28;20231;-88
2024/01/08 06:50:11;;;;;;;5.50;4.90;;;;;;;-0.15;69.34;95235.06;4967462;28;20247;-87
2024/01/08 06:52:39;;;;;;;5.13;4.63;;;;;;;-0.10;69.35;95248.19;4969713;28;20670;-87
2024/01/08 06:55:19;;;;;;;5.13;4.63;;;;;;;-0.21;68.68;95212.00;4971706;28;20211;-87
2024/01/08 06:57:47;;;;;;;5.53;4.80;;;;;;;-0.19;68.66;95221.06;4989248;28;20209;-87
2024/01/08 07:00:15;;;;;;;5.80;5.20;;;;;;;-0.13;69.14;95224.84;4987344;28;20589;-87
2024/01/08 07:02:43;;;;;;;6.13;5.40;;;;;;;-0.10;69.12;95237.25;4988995;28;20226;-87
2024/01/08 07:05:20;;;;;;;4.93;4.43;;;;;;;-0.07;68.95;95231.97;5005046;22;20230;-87
2024/01/08 07:07:46;;;;;;;6.30;5.40;;;;;;;-0.02;69.38;95245.06;4973640;28;20670;-87
2024/01/08 07:10:14;;;;;;;6.47;5.27;;;;;;;-0.03;70.12;95276.34;4970159;28;20303;-87
2024/01/08 07:12:41;;;;;;;47.40;31.07;;;;;;;-0.06;69.42;95244.50;4969515;28;20211;-86
2024/01/08 07:15:08;;;;;;;38.10;24.00;;;;;;;-0.20;69.36;95243.97;4968669;28;20224;-87
2024/01/08 07:17:55;;;;;;;11.43;8.37;;;;;;;-0.36;71.05;95315.13;4978365;28;20204;-87
2024/01/08 07:20:21;;;;;;;6.53;5.73;;;;;;;-0.35;70.69;95292.25;4988297;28;20798;-87
2024/01/08 07:23:05;;;;;;;6.00;5.40;;;;;;;-0.22;69.98;95276.97;4988832;28;20417;-87
2024/01/08 07:25:31;;;;;;;7.00;5.43;;;;;;;-0.19;69.10;95235.47;4988061;28;20223;-87
2024/01/08 07:27:59;;;;;;;5.70;5.10;;;;;;;-0.28;68.73;95211.66;4989093;28;20286;-87
2024/01/08 07:30:53;;;;;;;7.63;5.73;;;;;;;-0.32;69.09;95228.00;4988647;28;20373;-87
2024/01/08 07:39:35;;;;;;;7.10;5.43;;;;;;;-0.25;68.79;95211.44;4979911;28;20689;-89
2024/01/08 07:42:02;;;;;;;6.93;6.23;;;;;;;-0.59;69.32;95236.00;4967474;28;20305;-89
2024/01/08 07:47:56;;;;;;;5.67;5.13;;;;;;;-0.35;69.94;95307.44;4910772;29;20242;-86
2024/01/08 07:50:59;;;;;;;7.27;6.30;;;;;;;-0.16;69.63;95311.09;4906407;29;20323;-87
2024/01/08 07:57:18;;;;;;;56.40;35.13;;;;;;;-0.04;69.80;95315.22;4814579;29;20213;-87
2024/01/08 08:00:25;;;;;;;15.30;11.90;;;;;;;-0.10;69.60;95278.53;4889449;28;20211;-87
2024/01/08 08:05:39;;;;;;;6.87;5.70;;;;;;;0.00;69.23;95279.41;4974215;28;20261;-86
2024/01/08 08:08:08;;;;;;;7.00;5.70;;;;;;;0.05;68.93;95285.84;4969354;28;20208;-87
2024/01/08 08:10:53;;;;;;;6.77;5.53;;;;;;;0.09;68.46;95272.84;4945149;28;20236;-87
2024/01/08 08:16:50;;;;;;;7.93;6.00;;;;;;;-0.16;69.00;95258.75;4832347;29;20302;-87
2024/01/08 08:22:14;;;;;;;7.57;5.93;;;;;;;-0.12;69.21;95285.44;4823285;29;20242;-86
2024/01/08 08:31:00;;;;;;;6.90;5.53;;;;;;;-0.10;68.84;95282.78;4929984;28;20204;-87
2024/01/08 08:33:34;;;;;;;6.67;5.50;;;;;;;-0.17;68.81;95274.06;4949585;29;20236;-87
2024/01/08 08:36:11;;;;;;;;;;;;;;;;;;;;;
2024/01/08 08:38:51;;;;;;;8.10;5.90;;;;;;;-0.27;69.08;95291.69;4975648;28;20215;-86
2024/01/08 08:44:09;;;;;;;16.33;11.83;;;;;;;-0.06;69.33;95328.00;4987279;28;20370;-87
2024/01/08 08:46:53;;;;;;;8.40;7.00;;;;;;;-0.06;69.81;95349.97;4992200;28;20266;-87
2024/01/08 08:52:17;;;;;;;6.90;6.20;;;;;;;0.14;69.34;95349.22;4930053;29;20212;-87
2024/01/08 08:54:52;;;;;;;7.20;6.10;;;;;;;0.14;69.10;95323.13;4941118;29;20319;-83
2024/01/08 08:57:34;;;;;;;6.93;6.00;;;;;;;0.08;69.15;95321.84;4938707;29;20659;-87
2024/01/08 09:00:33;;;;;;;7.50;6.03;;;;;;;0.00;68.96;95293.81;4930384;29;20617;-86
2024/01/08 09:06:33;;;;;;;7.37;6.07;;;;;;;0.09;68.92;95320.13;4929690;29;20248;-87
2024/01/08 09:09:02;;;;;;;7.07;6.20;;;;;;;0.14;68.86;95323.91;4945280;28;20216;-86
2024/01/08 09:15:16;;;;;;;7.27;6.10;;;;;;;0.17;69.03;95328.75;4878661;29;20237;-85
2024/01/08 09:17:46;;;;;;;7.63;5.90;;;;;;;0.19;69.11;95357.25;4920772;28;20207;-86
2024/01/08 09:20:15;;;;;;;23.60;17.77;;;;;;;0.17;69.48;95369.25;4990405;28;20210;-86
2024/01/08 09:25:50;;;;;;;8.03;6.50;;;;;;;0.02;69.45;95355.22;4987523;28;20227;-87
2024/01/08 09:28:23;;;;;;;8.93;7.13;;;;;;;-0.02;69.82;95376.63;4980448;28;20242;-87
2024/01/08 09:30:50;;;;;;;8.37;6.73;;;;;;;0.03;70.18;95389.72;4973020;28;20266;-85
2024/01/08 09:33:17;;;;;;;7.27;6.13;;;;;;;-0.12;69.77;95379.06;4974100;28;20210;-85
2024/01/08 09:35:54;;;;;;;7.50;6.57;;;;;;;-0.15;70.42;95413.91;4972018;28;20235;-86
2024/01/08 09:38:22;;;;;;;7.73;6.23;;;;;;;-0.03;70.57;95421.38;4970949;28;20235;-87
2024/01/08 09:40:49;;;;;;;8.90;6.63;;;;;;;0.14;70.23;95409.16;4970809;28;20212;-87
2024/01/08 09:43:40;;;;;;;8.87;7.20;;;;;;;0.22;69.82;95387.38;4984374;28;20322;-88
2024/01/08 09:46:09;;;;;;;7.43;6.50;;;;;;;0.34;69.53;95385.66;4990300;28;20211;-86
2024/01/08 09:48:52;;;;;;;6.90;6.03;;;;;;;0.39;69.68;95392.88;4990328;28;20207;-86
2024/01/08 09:51:23;;;;;;;36.70;23.23;;;;;;;0.42;70.03;95415.44;4989994;28;20192;-87
2024/01/08 09:54:03;;;;;;;17.47;13.27;;;;;;;0.45;69.58;95407.59;4977740;28;20208;-86
2024/01/08 09:56:40;;;;;;;10.50;8.10;;;;;;;0.52;70.01;95413.81;4984817;28;20210;-87
2024/01/08 09:59:06;;;;;;;7.37;6.67;;;;;;;0.47;69.31;95382.97;4988135;28;20230;-86
2024/01/08 10:06:45;;;;;;;9.07;7.17;;;;;;;0.53;69.40;95390.09;4988286;28;20222;-86
2024/01/08 10:09:14;;;;;;;8.27;7.03;;;;;;;0.37;69.46;95387.94;4990229;28;20199;-86
2024/01/08 10:11:52;;;;;;;;;;;;;;;;;;;;;
2024/01/08 10:17:20;;;;;;;7.90;6.90;;;;;;;0.14;69.56;95366.94;4968810;28;20215;-86
2024/01/08 10:20:10;;;;;;;8.73;6.97;;;;;;;0.09;69.95;95385.94;4970285;28;20223;-86
2024/01/08 10:23:08;;;;;;;9.33;7.30;;;;;;;0.21;70.40;95420.41;4969623;28;20239;-86
2024/01/08 10:25:44;;;;;;;8.30;6.77;;;;;;;0.26;70.32;95410.75;5014713;23;20232;-86
2024/01/08 10:28:43;;;;;;;9.40;7.10;;;;;;;0.31;69.77;95394.28;4953431;29;20193;-89
2024/01/08 10:35:01;;;;;;;8.53;6.93;;;;;;;0.21;69.06;95364.72;4975221;28;20744;-88
2024/01/08 10:38:37;;;;;;;8.63;7.50;;;;;;;-0.10;70.54;95405.03;4977295;28;20587;-87
2024/01/08 10:45:00;;;;;;;10.43;7.87;;;;;;;-0.38;71.68;95454.34;4966886;28;20228;-88
2024/01/08 10:48:00;;;;;;;8.70;7.03;;;;;;;-0.39;72.48;95500.81;4968209;28;20230;-87
2024/01/08 10:53:50;;;;;;;7.73;6.47;;;;;;;-0.31;72.47;95499.44;4920500;29;20295;-87
2024/01/08 10:59:44;;;;;;;9.00;7.13;;;;;;;-0.55;74.10;95565.22;4931037;28;20212;-88
2024/01/08 11:02:21;;;;;;;37.93;26.13;;;;;;;-0.28;74.03;95575.91;4971706;28;20215;-85
2024/01/08 11:07:38;;;;;;;7.53;6.70;;;;;;;0.02;72.13;95499.47;4973007;28;20212;-89
2024/01/08 11:10:20;;;;;;;7.73;6.33;;;;;;;0.01;71.78;95462.41;4975319;28;20709;-88
2024/01/08 11:12:59;;;;;;;7.20;6.50;;;;;;;0.07;71.27;95456.91;4930566;28;20644;-86
2024/01/08 11:35:59;;;;;;;7.90;7.10;;;;;;;0.44;69.68;95373.88;4768019;29;20944;-86
2024/01/08 11:38:35;;;;;;;8.57;7.27;;;;;;;0.46;69.45;95381.34;4925081;28;20210;-85
2024/01/08 11:43:51;;;;;;;8.97;6.97;;;;;;;0.25;70.61;95416.72;4951661;28;20624;-85
2024/01/08 11:46:30;;;;;;;9.80;8.13;;;;;;;0.30;71.01;95437.44;4970919;28;20235;-85
2024/01/08 11:49:05;;;;;;;29.40;21.97;;;;;;;0.46;70.57;95439.59;4950306;28;20246;-86
2024/01/08 11:51:43;;;;;;;10.30;8.50;;;;;;;0.46;70.09;95406.69;4970084;28;20275;-87
2024/01/08 11:54:15;;;;;;;8.33;6.80;;;;;;;0.49;70.11;95401.38;4971209;28;20862;-87
2024/01/08 11:56:50;;;;;;;7.30;6.50;;;;;;;0.51;69.88;95394.47;4970510;28;20208;-87
2024/01/08 11:59:42;;;;;;;7.80;6.47;;;;;;;0.69;69.44;95381.16;4973424;28;20183;-84
2024/01/08 12:02:35;;;;;;;8.10;6.50;;;;;;;1.49;100.00;96159.47;4974657;28;20587;-86
2024/01/08 12:05:29;;;;;;;7.87;7.00;;;;;;;1.87;100.00;96188.97;4961461;28;20306;-86
2024/01/08 12:08:03;;;;;;;8.70;7.63;;;;;;;2.10;96.12;95991.78;4973366;28;20291;-86
2024/01/08 12:13:49;;;;;;;7.93;6.73;;;;;;;1.42;70.73;95241.72;4968729;28;20200;-87
2024/01/08 12:16:49;;;;;;;8.03;7.00;;;;;;;1.37;70.78;95222.63;4970677;28;20220;-87
2024/01/08 12:19:40;;;;;;;7.23;6.53;;;;;;;1.36;70.48;95222.75;4916363;28;20202;-87
2024/01/08 12:22:22;;;;;;;7.80;7.00;;;;;;;1.14;70.80;95220.44;4931437;28;20213;-88
2024/01/08 12:24:57;;;;;;;31.33;24.20;;;;;;;0.86;70.61;95194.03;4970668;28;20235;-87
2024/01/08 12:28:10;;;;;;;10.17;8.50;;;;;;;0.82;70.74;95203.63;4973585;28;20235;-88
2024/01/08 12:30:53;;;;;;;8.97;7.10;;;;;;;0.89;70.83;95224.19;4972730;28;20271;-88
2024/01/08 12:33:20;;;;;;;8.20;7.13;;;;;;;0.90;70.97;95225.78;4973151;28;20195;-87
2024/01/08 12:38:36;;;;;;;7.73;6.67;;;;;;;0.98;71.09;95229.28;4970763;28;20204;-86
2024/01/08 12:44:02;;;;;;;7.37;6.67;;;;;;;0.94;70.81;95234.75;4952267;28;20279;-86
2024/01/08 12:46:48;;;;;;;8.20;6.90;;;;;;;0.95;70.80;95243.97;4953245;28;20208;-87
2024/01/08 12:49:21;;;;;;;8.87;7.17;;;;;;;0.84;70.99;95241.50;4953728;28;20308;-86
2024/01/08 12:52:22;;;;;;;8.30;7.13;;;;;;;0.93;71.01;95259.31;4953150;29;20200;-87
2024/01/08 12:55:09;;;;;;;8.67;7.10;;;;;;;0.99;71.06;95258.78;4953387;28;20613;-87
2024/01/08 12:58:03;;;;;;;7.80;7.00;;;;;;;0.92;71.00;95269.56;4961687;28;20215;-86
2024/01/08 13:00:35;;;;;;;7.33;6.63;;;;;;;0.81;70.74;95257.75;4967528;28;20239;-87
2024/01/08 13:03:02;;;;;;;32.10;23.67;;;;;;;0.79;71.25;95279.06;4972443;28;20204;-88
2024/01/08 13:05:42;;;;;;;11.33;9.60;;;;;;;0.57;70.80;95250.44;4972324;28;20239;-87
2024/01/08 13:08:14;;;;;;;8.10;7.30;;;;;;;0.42;71.28;95260.97;4972474;28;20597;-88
2024/01/08 13:13:27;;;;;;;7.67;6.87;;;;;;;0.55;71.46;95282.66;4970139;28;20394;-85
2024/01/08 13:15:55;;;;;;;7.80;6.90;;;;;;;0.60;71.79;95308.41;4973474;28;20234;-87
2024/01/08 13:18:22;;;;;;;9.37;7.50;;;;;;;0.71;71.33;95306.78;4972213;28;20207;-87
2024/01/08 13:21:07;;;;;;;7.53;6.73;;;;;;;0.72;70.92;95277.97;4971418;28;20201;-87
2024/01/08 13:23:34;;;;;;;8.97;7.13;;;;;;;0.76;71.02;95282.69;4972058;28;20323;-86
2024/01/08 13:26:20;;;;;;;7.10;6.40;;;;;;;0.63;70.78;95271.91;4971539;28;20235;-87
2024/01/08 13:29:00;;;;;;;7.47;6.73;;;;;;;0.58;70.90;95276.53;4982131;28;20220;-86
2024/01/08 13:31:38;;;;;;;7.67;6.50;;;;;;;0.27;70.59;95252.88;4988269;28;20219;-86
2024/01/08 13:34:06;;;;;;;8.90;7.03;;;;;;;0.22;71.37;95293.72;4986105;28;20230;-87
2024/01/08 13:36:33;;;;;;;8.37;7.43;;;;;;;0.37;71.92;95331.44;4988723;28;20235;-87
2024/01/08 13:39:03;;;;;;;7.20;6.50;;;;;;;0.53;71.57;95341.97;4987160;28;20208;-86
2024/01/08 13:41:44;;;;;;;8.90;7.27;;;;;;;0.56;71.57;95329.06;4988855;28;20235;-87
2024/01/08 13:44:42;;;;;;;8.47;7.33;;;;;;;0.20;71.86;95320.88;4988000;28;20212;-87
2024/01/08 13:50:08;;;;;;;8.30;7.30;;;;;;;0.28;73.05;95398.78;4940877;29;20293;-86
2024/01/08 13:52:43;;;;;;;8.53;7.63;;;;;;;0.42;72.91;95397.69;4973293;28;20250;-87
2024/01/08 13:55:19;;;;;;;8.77;7.53;;;;;;;0.49;72.31;95374.31;4975005;28;20211;-87
2024/01/08 13:58:17;;;;;;;10.60;8.87;;;;;;;0.60;72.23;95376.81;4973309;28;20204;-87
2024/01/08 14:01:12;;;;;;;17.57;13.97;;;;;;;0.65;72.45;95397.53;4971420;28;20235;-87
2024/01/08 14:03:44;;;;;;;8.03;7.13;;;;;;;0.54;71.66;95346.91;4973024;28;20268;-87
2024/01/08 14:06:14;;;;;;;9.07;7.73;;;;;;;0.46;71.86;95359.38;4972219;28;20201;-87
2024/01/08 14:08:51;;;;;;;9.33;7.60;;;;;;;0.44;72.20;95385.72;4972314;28;20208;-86
2024/01/08 14:11:18;;;;;;;8.63;7.67;;;;;;;0.44;73.01;95408.53;4964930;28;20200;-86
2024/01/08 14:14:10;;;;;;;9.00;7.70;;;;;;;0.44;72.19;95401.72;4972799;28;20228;-87
2024/01/08 14:20:05;;;;;;;20.30;15.47;;;;;;;0.23;72.78;95411.78;4951499;28;20662;-87
2024/01/08 14:22:33;;;;;;;11.50;8.67;;;;;;;-0.01;72.52;95406.09;4949161;28;20237;-87
2024/01/08 14:25:25;;;;;;;10.13;8.50;;;;;;;-0.06;73.55;95454.50;4951955;29;20232;-87
2024/01/08 14:31:19;;;;;;;8.50;7.23;;;;;;;-0.38;74.72;95501.59;4884807;28;20263;-87